sensor_id;sensor_type;location;lat;lon;timestamp;P1;durP1;ratioP1;P2;durP2;ratioP2
6693;SDS011;3384;42.628;23.380;2023-05-07T00:01:21;3.23;;;3.03;;
6693;SDS011;3384;42.628;23.380;2023-05-07T00:03:49;2.63;;;2.53;;
6693;SDS011;3384;42.628;23.380;2023-05-07T00:06:16;8.40;;;2.83;;
6693;SDS011;3384;42.628;23.380;2023-05-07T00:08:43;3.10;;;2.90;;
6693;SDS011;3384;42.628;23.380;2023-05-07T00:11:12;3.63;;;3.33;;
6693;SDS011;3384;42.628;23.380;2023-05-07T00:13:39;3.07;;;2.57;;
6693;SDS011;3384;42.628;23.380;2023-05-07T00:16:11;3.30;;;3.10;;
6693;SDS011;3384;42.628;23.380;2023-05-07T00:18:38;4.27;;;3.50;;
6693;SDS011;3384;42.628;23.380;2023-05-07T00:21:05;5.47;;;5.00;;
6693;SDS011;3384;42.628;23.380;2023-05-07T00:23:31;5.83;;;5.33;;
6693;SDS011;3384;42.628;23.380;2023-05-07T00:25:58;11.13;;;5.70;;
6693;SDS011;3384;42.628;23.380;2023-05-07T00:28:24;5.37;;;4.90;;
6693;SDS011;3384;42.628;23.380;2023-05-07T00:30:51;4.83;;;4.53;;
6693;SDS011;3384;42.628;23.380;2023-05-07T00:33:19;6.10;;;5.60;;
6693;SDS011;3384;42.628;23.380;2023-05-07T00:35:46;6.40;;;5.80;;
6693;SDS011;3384;42.628;23.380;2023-05-07T00:38:13;6.13;;;5.83;;
6693;SDS011;3384;42.628;23.380;2023-05-07T00:40:39;8.53;;;7.93;;
6693;SDS011;3384;42.628;23.380;2023-05-07T00:43:06;8.73;;;7.50;;
6693;SDS011;3384;42.628;23.380;2023-05-07T00:45:34;7.77;;;6.37;;
6693;SDS011;3384;42.628;23.380;2023-05-07T00:48:01;7.00;;;6.43;;
6693;SDS011;3384;42.628;23.380;2023-05-07T00:50:30;6.50;;;4.37;;
6693;SDS011;3384;42.628;23.380;2023-05-07T00:52:56;3.70;;;3.37;;
6693;SDS011;3384;42.628;23.380;2023-05-07T00:55:23;3.80;;;3.60;;
6693;SDS011;3384;42.628;23.380;2023-05-07T00:57:50;3.93;;;3.73;;
6693;SDS011;3384;42.628;23.380;2023-05-07T01:00:17;3.60;;;3.40;;
6693;SDS011;3384;42.628;23.380;2023-05-07T01:02:44;3.60;;;3.40;;
6693;SDS011;3384;42.628;23.380;2023-05-07T01:05:12;2.90;;;2.80;;
6693;SDS011;3384;42.628;23.380;2023-05-07T01:07:41;3.73;;;3.53;;
6693;SDS011;3384;42.628;23.380;2023-05-07T01:10:08;4.40;;;4.00;;
6693;SDS011;3384;42.628;23.380;2023-05-07T01:12:35;3.43;;;3.23;;
6693;SDS011;3384;42.628;23.380;2023-05-07T01:15:03;3.10;;;3.00;;
6693;SDS011;3384;42.628;23.380;2023-05-07T01:17:31;3.60;;;3.40;;
6693;SDS011;3384;42.628;23.380;2023-05-07T01:19:59;5.03;;;3.80;;
6693;SDS011;3384;42.628;23.380;2023-05-07T01:22:31;3.50;;;3.40;;
6693;SDS011;3384;42.628;23.380;2023-05-07T01:24:58;4.40;;;4.17;;
6693;SDS011;3384;42.628;23.380;2023-05-07T01:27:26;6.13;;;3.70;;
6693;SDS011;3384;42.628;23.380;2023-05-07T01:29:53;6.20;;;3.57;;
6693;SDS011;3384;42.628;23.380;2023-05-07T01:32:21;3.80;;;3.50;;
6693;SDS011;3384;42.628;23.380;2023-05-07T01:34:50;4.10;;;3.70;;
6693;SDS011;3384;42.628;23.380;2023-05-07T01:37:17;4.87;;;3.90;;
6693;SDS011;3384;42.628;23.380;2023-05-07T01:39:46;6.53;;;4.63;;
6693;SDS011;3384;42.628;23.380;2023-05-07T01:42:14;4.40;;;4.17;;
6693;SDS011;3384;42.628;23.380;2023-05-07T01:44:41;22.00;;;4.57;;
6693;SDS011;3384;42.628;23.380;2023-05-07T01:47:07;5.87;;;5.57;;
6693;SDS011;3384;42.628;23.380;2023-05-07T01:49:34;4.93;;;4.67;;
6693;SDS011;3384;42.628;23.380;2023-05-07T01:52:01;7.03;;;6.20;;
6693;SDS011;3384;42.628;23.380;2023-05-07T01:54:28;5.90;;;5.50;;
6693;SDS011;3384;42.628;23.380;2023-05-07T01:56:56;6.33;;;5.67;;
6693;SDS011;3384;42.628;23.380;2023-05-07T01:59:23;6.60;;;5.90;;
6693;SDS011;3384;42.628;23.380;2023-05-07T02:01:50;5.17;;;4.87;;
6693;SDS011;3384;42.628;23.380;2023-05-07T02:04:17;7.40;;;6.80;;
6693;SDS011;3384;42.628;23.380;2023-05-07T02:06:43;6.53;;;6.10;;
6693;SDS011;3384;42.628;23.380;2023-05-07T02:09:10;6.63;;;6.20;;
6693;SDS011;3384;42.628;23.380;2023-05-07T02:11:37;7.40;;;6.50;;
6693;SDS011;3384;42.628;23.380;2023-05-07T02:14:04;6.83;;;6.43;;
6693;SDS011;3384;42.628;23.380;2023-05-07T02:16:31;6.53;;;6.20;;
6693;SDS011;3384;42.628;23.380;2023-05-07T02:18:58;7.47;;;7.07;;
6693;SDS011;3384;42.628;23.380;2023-05-07T02:21:24;6.40;;;5.97;;
6693;SDS011;3384;42.628;23.380;2023-05-07T02:23:51;7.40;;;6.80;;
6693;SDS011;3384;42.628;23.380;2023-05-07T02:26:18;6.60;;;6.03;;
6693;SDS011;3384;42.628;23.380;2023-05-07T02:28:44;8.10;;;7.60;;
6693;SDS011;3384;42.628;23.380;2023-05-07T02:31:12;7.77;;;7.13;;
6693;SDS011;3384;42.628;23.380;2023-05-07T02:33:39;7.67;;;7.20;;
6693;SDS011;3384;42.628;23.380;2023-05-07T02:36:05;6.90;;;6.60;;
6693;SDS011;3384;42.628;23.380;2023-05-07T02:38:32;8.80;;;8.13;;
6693;SDS011;3384;42.628;23.380;2023-05-07T02:40:59;12.50;;;7.50;;
6693;SDS011;3384;42.628;23.380;2023-05-07T02:43:25;7.50;;;6.80;;
6693;SDS011;3384;42.628;23.380;2023-05-07T02:45:59;7.40;;;6.70;;
6693;SDS011;3384;42.628;23.380;2023-05-07T02:48:27;7.93;;;7.33;;
6693;SDS011;3384;42.628;23.380;2023-05-07T02:50:54;7.80;;;7.23;;
6693;SDS011;3384;42.628;23.380;2023-05-07T02:53:20;6.87;;;6.50;;
6693;SDS011;3384;42.628;23.380;2023-05-07T02:55:47;8.60;;;8.00;;
6693;SDS011;3384;42.628;23.380;2023-05-07T02:58:13;8.73;;;7.83;;
6693;SDS011;3384;42.628;23.380;2023-05-07T03:00:40;9.30;;;8.60;;
6693;SDS011;3384;42.628;23.380;2023-05-07T03:03:06;9.17;;;8.40;;
6693;SDS011;3384;42.628;23.380;2023-05-07T03:05:34;8.30;;;7.73;;
6693;SDS011;3384;42.628;23.380;2023-05-07T03:08:01;10.27;;;8.43;;
6693;SDS011;3384;42.628;23.380;2023-05-07T03:10:27;11.43;;;10.30;;
6693;SDS011;3384;42.628;23.380;2023-05-07T03:12:54;10.73;;;9.00;;
6693;SDS011;3384;42.628;23.380;2023-05-07T03:15:20;15.53;;;10.30;;
6693;SDS011;3384;42.628;23.380;2023-05-07T03:17:47;9.70;;;8.80;;
6693;SDS011;3384;42.628;23.380;2023-05-07T03:20:14;10.20;;;9.10;;
6693;SDS011;3384;42.628;23.380;2023-05-07T03:22:42;10.30;;;9.57;;
6693;SDS011;3384;42.628;23.380;2023-05-07T03:25:09;12.43;;;10.23;;
6693;SDS011;3384;42.628;23.380;2023-05-07T03:27:35;11.70;;;10.80;;
6693;SDS011;3384;42.628;23.380;2023-05-07T03:30:02;13.90;;;10.50;;
6693;SDS011;3384;42.628;23.380;2023-05-07T03:32:29;14.13;;;10.80;;
6693;SDS011;3384;42.628;23.380;2023-05-07T03:34:55;11.77;;;10.70;;
6693;SDS011;3384;42.628;23.380;2023-05-07T03:37:22;15.87;;;11.13;;
6693;SDS011;3384;42.628;23.380;2023-05-07T03:39:50;12.07;;;10.97;;
6693;SDS011;3384;42.628;23.380;2023-05-07T03:42:16;15.13;;;12.20;;
6693;SDS011;3384;42.628;23.380;2023-05-07T03:44:43;12.27;;;11.07;;
6693;SDS011;3384;42.628;23.380;2023-05-07T03:47:09;14.50;;;12.20;;
6693;SDS011;3384;42.628;23.380;2023-05-07T03:49:36;17.40;;;12.07;;
6693;SDS011;3384;42.628;23.380;2023-05-07T03:52:03;13.83;;;12.40;;
6693;SDS011;3384;42.628;23.380;2023-05-07T03:54:30;15.30;;;11.70;;
6693;SDS011;3384;42.628;23.380;2023-05-07T03:56:58;11.43;;;10.27;;
6693;SDS011;3384;42.628;23.380;2023-05-07T03:59:24;12.43;;;11.17;;
6693;SDS011;3384;42.628;23.380;2023-05-07T04:01:51;13.93;;;12.53;;
6693;SDS011;3384;42.628;23.380;2023-05-07T04:04:17;21.30;;;9.50;;
6693;SDS011;3384;42.628;23.380;2023-05-07T04:06:44;11.00;;;10.00;;
6693;SDS011;3384;42.628;23.380;2023-05-07T04:09:10;12.80;;;11.10;;
6693;SDS011;3384;42.628;23.380;2023-05-07T04:11:37;12.67;;;11.50;;
6693;SDS011;3384;42.628;23.380;2023-05-07T04:14:06;16.10;;;10.97;;
6693;SDS011;3384;42.628;23.380;2023-05-07T04:16:34;14.03;;;12.17;;
6693;SDS011;3384;42.628;23.380;2023-05-07T04:19:00;12.83;;;11.27;;
6693;SDS011;3384;42.628;23.380;2023-05-07T04:21:27;12.27;;;11.03;;
6693;SDS011;3384;42.628;23.380;2023-05-07T04:23:54;17.40;;;11.10;;
6693;SDS011;3384;42.628;23.380;2023-05-07T04:26:20;12.00;;;10.90;;
6693;SDS011;3384;42.628;23.380;2023-05-07T04:28:48;12.27;;;11.20;;
6693;SDS011;3384;42.628;23.380;2023-05-07T04:31:16;10.90;;;9.80;;
6693;SDS011;3384;42.628;23.380;2023-05-07T04:33:42;12.00;;;10.90;;
6693;SDS011;3384;42.628;23.380;2023-05-07T04:36:09;13.80;;;10.67;;
6693;SDS011;3384;42.628;23.380;2023-05-07T04:38:35;12.40;;;10.70;;
6693;SDS011;3384;42.628;23.380;2023-05-07T04:41:03;11.20;;;10.20;;
6693;SDS011;3384;42.628;23.380;2023-05-07T04:43:30;16.77;;;11.37;;
6693;SDS011;3384;42.628;23.380;2023-05-07T04:45:56;16.60;;;10.07;;
6693;SDS011;3384;42.628;23.380;2023-05-07T04:48:24;16.40;;;12.03;;
6693;SDS011;3384;42.628;23.380;2023-05-07T04:50:51;12.50;;;11.20;;
6693;SDS011;3384;42.628;23.380;2023-05-07T04:53:19;12.63;;;11.10;;
6693;SDS011;3384;42.628;23.380;2023-05-07T04:55:46;12.97;;;11.60;;
6693;SDS011;3384;42.628;23.380;2023-05-07T04:58:12;14.77;;;11.10;;
6693;SDS011;3384;42.628;23.380;2023-05-07T05:00:39;12.13;;;10.73;;
6693;SDS011;3384;42.628;23.380;2023-05-07T05:03:06;13.07;;;10.90;;
6693;SDS011;3384;42.628;23.380;2023-05-07T05:05:34;13.57;;;12.17;;
6693;SDS011;3384;42.628;23.380;2023-05-07T05:08:01;13.70;;;10.57;;
6693;SDS011;3384;42.628;23.380;2023-05-07T05:10:27;11.03;;;9.93;;
6693;SDS011;3384;42.628;23.380;2023-05-07T05:12:54;13.17;;;10.10;;
6693;SDS011;3384;42.628;23.380;2023-05-07T05:15:20;12.90;;;11.70;;
6693;SDS011;3384;42.628;23.380;2023-05-07T05:17:47;14.53;;;11.67;;
6693;SDS011;3384;42.628;23.380;2023-05-07T05:20:13;15.13;;;11.60;;
6693;SDS011;3384;42.628;23.380;2023-05-07T05:22:41;13.27;;;11.03;;
6693;SDS011;3384;42.628;23.380;2023-05-07T05:25:08;17.00;;;11.30;;
6693;SDS011;3384;42.628;23.380;2023-05-07T05:27:35;12.27;;;11.10;;
6693;SDS011;3384;42.628;23.380;2023-05-07T05:30:01;12.00;;;10.83;;
6693;SDS011;3384;42.628;23.380;2023-05-07T05:32:28;16.33;;;11.70;;
6693;SDS011;3384;42.628;23.380;2023-05-07T05:34:54;12.80;;;11.27;;
6693;SDS011;3384;42.628;23.380;2023-05-07T05:37:21;12.93;;;10.20;;
6693;SDS011;3384;42.628;23.380;2023-05-07T05:39:49;21.20;;;10.57;;
6693;SDS011;3384;42.628;23.380;2023-05-07T05:42:16;11.03;;;9.70;;
6693;SDS011;3384;42.628;23.380;2023-05-07T05:44:42;9.87;;;9.07;;
6693;SDS011;3384;42.628;23.380;2023-05-07T05:47:09;10.97;;;10.07;;
6693;SDS011;3384;42.628;23.380;2023-05-07T05:49:35;9.43;;;8.43;;
6693;SDS011;3384;42.628;23.380;2023-05-07T05:52:02;11.13;;;9.70;;
6693;SDS011;3384;42.628;23.380;2023-05-07T05:54:28;14.37;;;10.50;;
6693;SDS011;3384;42.628;23.380;2023-05-07T05:56:56;11.70;;;10.50;;
6693;SDS011;3384;42.628;23.380;2023-05-07T05:59:23;10.50;;;9.40;;
6693;SDS011;3384;42.628;23.380;2023-05-07T06:01:50;18.17;;;10.53;;
6693;SDS011;3384;42.628;23.380;2023-05-07T06:04:16;9.53;;;8.67;;
6693;SDS011;3384;42.628;23.380;2023-05-07T06:06:43;16.57;;;10.53;;
6693;SDS011;3384;42.628;23.380;2023-05-07T06:09:09;10.93;;;9.83;;
6693;SDS011;3384;42.628;23.380;2023-05-07T06:11:36;10.63;;;9.60;;
6693;SDS011;3384;42.628;23.380;2023-05-07T06:14:04;14.10;;;8.23;;
6693;SDS011;3384;42.628;23.380;2023-05-07T06:16:31;11.03;;;9.70;;
6693;SDS011;3384;42.628;23.380;2023-05-07T06:18:57;11.17;;;10.07;;
6693;SDS011;3384;42.628;23.380;2023-05-07T06:21:24;10.43;;;9.50;;
6693;SDS011;3384;42.628;23.380;2023-05-07T06:23:51;9.10;;;8.20;;
6693;SDS011;3384;42.628;23.380;2023-05-07T06:26:19;10.03;;;9.10;;
6693;SDS011;3384;42.628;23.380;2023-05-07T06:28:46;9.43;;;8.50;;
6693;SDS011;3384;42.628;23.380;2023-05-07T06:31:15;10.63;;;8.73;;
6693;SDS011;3384;42.628;23.380;2023-05-07T06:33:42;9.47;;;8.70;;
6693;SDS011;3384;42.628;23.380;2023-05-07T06:36:09;10.10;;;9.10;;
6693;SDS011;3384;42.628;23.380;2023-05-07T06:38:35;9.03;;;8.23;;
6693;SDS011;3384;42.628;23.380;2023-05-07T06:41:02;10.20;;;7.70;;
6693;SDS011;3384;42.628;23.380;2023-05-07T06:43:28;9.20;;;8.50;;
6693;SDS011;3384;42.628;23.380;2023-05-07T06:45:55;10.37;;;8.97;;
6693;SDS011;3384;42.628;23.380;2023-05-07T06:48:23;8.27;;;7.57;;
6693;SDS011;3384;42.628;23.380;2023-05-07T06:50:50;8.27;;;7.40;;
6693;SDS011;3384;42.628;23.380;2023-05-07T06:53:16;8.70;;;8.10;;
6693;SDS011;3384;42.628;23.380;2023-05-07T06:55:43;11.43;;;7.50;;
6693;SDS011;3384;42.628;23.380;2023-05-07T06:58:09;8.53;;;7.83;;
6693;SDS011;3384;42.628;23.380;2023-05-07T07:00:36;197.77;;;22.33;;
6693;SDS011;3384;42.628;23.380;2023-05-07T07:03:02;131.43;;;16.67;;
6693;SDS011;3384;42.628;23.380;2023-05-07T07:05:30;102.27;;;14.43;;
6693;SDS011;3384;42.628;23.380;2023-05-07T07:07:57;17.27;;;8.90;;
6693;SDS011;3384;42.628;23.380;2023-05-07T07:10:24;7.40;;;6.63;;
6693;SDS011;3384;42.628;23.380;2023-05-07T07:12:50;8.70;;;7.90;;
6693;SDS011;3384;42.628;23.380;2023-05-07T07:15:17;14.83;;;8.67;;
6693;SDS011;3384;42.628;23.380;2023-05-07T07:17:45;11.13;;;6.27;;
6693;SDS011;3384;42.628;23.380;2023-05-07T07:20:20;9.87;;;8.83;;
6693;SDS011;3384;42.628;23.380;2023-05-07T07:22:48;8.03;;;7.40;;
6693;SDS011;3384;42.628;23.380;2023-05-07T07:25:17;16.50;;;8.10;;
6693;SDS011;3384;42.628;23.380;2023-05-07T07:27:44;11.67;;;7.30;;
6693;SDS011;3384;42.628;23.380;2023-05-07T07:30:11;7.63;;;6.20;;
6693;SDS011;3384;42.628;23.380;2023-05-07T07:32:37;8.43;;;7.57;;
6693;SDS011;3384;42.628;23.380;2023-05-07T07:35:07;13.80;;;8.13;;
6693;SDS011;3384;42.628;23.380;2023-05-07T07:37:35;8.63;;;7.67;;
6693;SDS011;3384;42.628;23.380;2023-05-07T07:40:04;8.70;;;7.80;;
6693;SDS011;3384;42.628;23.380;2023-05-07T07:42:33;273.20;;;26.67;;
6693;SDS011;3384;42.628;23.380;2023-05-07T07:45:01;30.87;;;13.33;;
6693;SDS011;3384;42.628;23.380;2023-05-07T07:47:28;16.97;;;9.37;;
6693;SDS011;3384;42.628;23.380;2023-05-07T07:49:54;11.43;;;8.30;;
6693;SDS011;3384;42.628;23.380;2023-05-07T07:52:21;8.10;;;7.30;;
6693;SDS011;3384;42.628;23.380;2023-05-07T07:54:50;8.30;;;7.47;;
6693;SDS011;3384;42.628;23.380;2023-05-07T07:57:20;7.77;;;6.93;;
6693;SDS011;3384;42.628;23.380;2023-05-07T07:59:47;7.57;;;6.80;;
6693;SDS011;3384;42.628;23.380;2023-05-07T08:02:16;39.93;;;9.73;;
6693;SDS011;3384;42.628;23.380;2023-05-07T08:04:43;9.00;;;8.30;;
6693;SDS011;3384;42.628;23.380;2023-05-07T08:07:12;8.43;;;7.73;;
6693;SDS011;3384;42.628;23.380;2023-05-07T08:09:39;7.67;;;7.07;;
6693;SDS011;3384;42.628;23.380;2023-05-07T08:12:06;12.10;;;8.17;;
6693;SDS011;3384;42.628;23.380;2023-05-07T08:14:34;14.73;;;7.50;;
6693;SDS011;3384;42.628;23.380;2023-05-07T08:17:04;13.33;;;7.10;;
6693;SDS011;3384;42.628;23.380;2023-05-07T08:19:31;7.50;;;5.77;;
6693;SDS011;3384;42.628;23.380;2023-05-07T08:22:00;7.00;;;6.43;;
6693;SDS011;3384;42.628;23.380;2023-05-07T08:24:27;19.33;;;7.90;;
6693;SDS011;3384;42.628;23.380;2023-05-07T08:26:56;11.63;;;8.30;;
6693;SDS011;3384;42.628;23.380;2023-05-07T08:29:22;8.50;;;7.77;;
6693;SDS011;3384;42.628;23.380;2023-05-07T08:31:51;8.40;;;7.60;;
6693;SDS011;3384;42.628;23.380;2023-05-07T08:34:17;8.93;;;8.20;;
6693;SDS011;3384;42.628;23.380;2023-05-07T08:36:44;7.77;;;6.43;;
6693;SDS011;3384;42.628;23.380;2023-05-07T08:39:12;16.77;;;8.10;;
6693;SDS011;3384;42.628;23.380;2023-05-07T08:41:38;7.87;;;7.07;;
6693;SDS011;3384;42.628;23.380;2023-05-07T08:44:11;10.07;;;7.40;;
6693;SDS011;3384;42.628;23.380;2023-05-07T08:46:38;9.20;;;7.03;;
6693;SDS011;3384;42.628;23.380;2023-05-07T08:49:07;10.17;;;6.70;;
6693;SDS011;3384;42.628;23.380;2023-05-07T08:51:36;6.00;;;5.60;;
6693;SDS011;3384;42.628;23.380;2023-05-07T08:54:02;7.20;;;6.50;;
6693;SDS011;3384;42.628;23.380;2023-05-07T08:56:33;6.40;;;6.00;;
6693;SDS011;3384;42.628;23.380;2023-05-07T08:59:05;7.47;;;6.40;;
6693;SDS011;3384;42.628;23.380;2023-05-07T09:01:32;5.40;;;5.00;;
6693;SDS011;3384;42.628;23.380;2023-05-07T09:04:00;10.90;;;4.57;;
6693;SDS011;3384;42.628;23.380;2023-05-07T09:06:28;9.43;;;4.80;;
6693;SDS011;3384;42.628;23.380;2023-05-07T09:08:55;6.27;;;5.97;;
6693;SDS011;3384;42.628;23.380;2023-05-07T09:11:26;10.43;;;8.73;;
6693;SDS011;3384;42.628;23.380;2023-05-07T09:13:56;6.33;;;5.57;;
6693;SDS011;3384;42.628;23.380;2023-05-07T09:16:26;6.27;;;5.40;;
6693;SDS011;3384;42.628;23.380;2023-05-07T09:18:57;6.60;;;6.10;;
6693;SDS011;3384;42.628;23.380;2023-05-07T09:21:31;9.10;;;5.60;;
6693;SDS011;3384;42.628;23.380;2023-05-07T09:23:59;7.83;;;6.80;;
6693;SDS011;3384;42.628;23.380;2023-05-07T09:26:26;6.00;;;5.50;;
6693;SDS011;3384;42.628;23.380;2023-05-07T09:33:58;6.30;;;5.90;;
6693;SDS011;3384;42.628;23.380;2023-05-07T09:36:28;11.23;;;5.20;;
6693;SDS011;3384;42.628;23.380;2023-05-07T09:39:00;5.57;;;5.17;;
6693;SDS011;3384;42.628;23.380;2023-05-07T09:41:29;5.80;;;5.37;;
6693;SDS011;3384;42.628;23.380;2023-05-07T09:43:59;5.20;;;4.90;;
6693;SDS011;3384;42.628;23.380;2023-05-07T09:46:27;6.00;;;5.50;;
6693;SDS011;3384;42.628;23.380;2023-05-07T09:48:57;6.17;;;4.60;;
6693;SDS011;3384;42.628;23.380;2023-05-07T09:51:38;5.30;;;4.90;;
6693;SDS011;3384;42.628;23.380;2023-05-07T09:57:13;4.00;;;3.77;;
6693;SDS011;3384;42.628;23.380;2023-05-07T09:59:54;5.63;;;5.30;;
6693;SDS011;3384;42.628;23.380;2023-05-07T10:05:20;5.30;;;5.00;;
6693;SDS011;3384;42.628;23.380;2023-05-07T10:07:56;4.43;;;4.23;;
6693;SDS011;3384;42.628;23.380;2023-05-07T10:10:32;5.10;;;4.90;;
6693;SDS011;3384;42.628;23.380;2023-05-07T10:13:09;5.00;;;3.80;;
6693;SDS011;3384;42.628;23.380;2023-05-07T10:15:36;5.33;;;3.40;;
6693;SDS011;3384;42.628;23.380;2023-05-07T10:18:05;4.10;;;3.90;;
6693;SDS011;3384;42.628;23.380;2023-05-07T10:20:32;4.13;;;3.93;;
6693;SDS011;3384;42.628;23.380;2023-05-07T10:23:02;4.47;;;4.27;;
6693;SDS011;3384;42.628;23.380;2023-05-07T10:25:32;4.50;;;4.07;;
6693;SDS011;3384;42.628;23.380;2023-05-07T10:28:00;3.90;;;3.70;;
6693;SDS011;3384;42.628;23.380;2023-05-07T10:30:32;4.23;;;4.13;;
6693;SDS011;3384;42.628;23.380;2023-05-07T10:33:03;4.70;;;4.30;;
6693;SDS011;3384;42.628;23.380;2023-05-07T10:35:37;6.57;;;6.17;;
6693;SDS011;3384;42.628;23.380;2023-05-07T10:38:05;4.10;;;3.90;;
6693;SDS011;3384;42.628;23.380;2023-05-07T10:40:35;5.03;;;4.63;;
6693;SDS011;3384;42.628;23.380;2023-05-07T10:43:05;5.40;;;5.10;;
6693;SDS011;3384;42.628;23.380;2023-05-07T10:48:26;7.90;;;5.20;;
6693;SDS011;3384;42.628;23.380;2023-05-07T10:50:52;11.43;;;4.50;;
6693;SDS011;3384;42.628;23.380;2023-05-07T10:53:39;3.57;;;3.47;;
6693;SDS011;3384;42.628;23.380;2023-05-07T10:56:27;4.30;;;3.60;;
6693;SDS011;3384;42.628;23.380;2023-05-07T10:58:55;4.33;;;4.03;;
6693;SDS011;3384;42.628;23.380;2023-05-07T11:04:17;5.33;;;4.10;;
6693;SDS011;3384;42.628;23.380;2023-05-07T11:15:44;4.60;;;4.30;;
6693;SDS011;3384;42.628;23.380;2023-05-07T11:18:12;6.50;;;4.30;;
6693;SDS011;3384;42.628;23.380;2023-05-07T11:20:55;4.30;;;4.10;;
6693;SDS011;3384;42.628;23.380;2023-05-07T11:26:21;6.73;;;5.40;;
6693;SDS011;3384;42.628;23.380;2023-05-07T11:28:50;6.73;;;6.33;;
6693;SDS011;3384;42.628;23.380;2023-05-07T11:31:23;4.73;;;4.27;;
6693;SDS011;3384;42.628;23.380;2023-05-07T11:33:54;8.63;;;4.97;;
6693;SDS011;3384;42.628;23.380;2023-05-07T11:36:30;7.03;;;4.03;;
6693;SDS011;3384;42.628;23.380;2023-05-07T11:38:57;7.13;;;5.00;;
6693;SDS011;3384;42.628;23.380;2023-05-07T11:41:32;3.97;;;3.87;;
6693;SDS011;3384;42.628;23.380;2023-05-07T11:43:59;4.23;;;3.93;;
6693;SDS011;3384;42.628;23.380;2023-05-07T11:46:29;3.60;;;3.50;;
6693;SDS011;3384;42.628;23.380;2023-05-07T11:48:56;5.03;;;4.83;;
6693;SDS011;3384;42.628;23.380;2023-05-07T11:51:25;5.00;;;4.60;;
6693;SDS011;3384;42.628;23.380;2023-05-07T11:53:56;5.07;;;4.90;;
6693;SDS011;3384;42.628;23.380;2023-05-07T11:56:26;5.00;;;4.10;;
6693;SDS011;3384;42.628;23.380;2023-05-07T11:58:52;3.77;;;3.63;;
6693;SDS011;3384;42.628;23.380;2023-05-07T12:01:22;4.07;;;3.87;;
6693;SDS011;3384;42.628;23.380;2023-05-07T12:03:51;4.23;;;4.03;;
6693;SDS011;3384;42.628;23.380;2023-05-07T12:06:17;4.70;;;4.40;;
6693;SDS011;3384;42.628;23.380;2023-05-07T12:08:46;12.73;;;4.73;;
6693;SDS011;3384;42.628;23.380;2023-05-07T12:11:15;4.60;;;4.40;;
6693;SDS011;3384;42.628;23.380;2023-05-07T12:13:43;4.03;;;3.57;;
6693;SDS011;3384;42.628;23.380;2023-05-07T12:16:13;5.67;;;5.27;;
6693;SDS011;3384;42.628;23.380;2023-05-07T12:18:40;4.57;;;4.23;;
6693;SDS011;3384;42.628;23.380;2023-05-07T12:21:09;6.00;;;4.23;;
6693;SDS011;3384;42.628;23.380;2023-05-07T12:23:36;4.87;;;4.33;;
6693;SDS011;3384;42.628;23.380;2023-05-07T12:26:06;4.23;;;3.80;;
6693;SDS011;3384;42.628;23.380;2023-05-07T12:28:55;4.30;;;4.10;;
6693;SDS011;3384;42.628;23.380;2023-05-07T12:31:26;4.50;;;4.07;;
6693;SDS011;3384;42.628;23.380;2023-05-07T12:33:52;5.10;;;3.63;;
6693;SDS011;3384;42.628;23.380;2023-05-07T12:36:21;4.13;;;3.73;;
6693;SDS011;3384;42.628;23.380;2023-05-07T12:38:49;5.20;;;4.73;;
6693;SDS011;3384;42.628;23.380;2023-05-07T12:41:18;10.60;;;4.70;;
6693;SDS011;3384;42.628;23.380;2023-05-07T12:43:53;4.67;;;4.30;;
6693;SDS011;3384;42.628;23.380;2023-05-07T12:46:46;5.17;;;4.97;;
6693;SDS011;3384;42.628;23.380;2023-05-07T12:49:12;6.97;;;4.43;;
6693;SDS011;3384;42.628;23.380;2023-05-07T12:51:41;4.70;;;3.77;;
6693;SDS011;3384;42.628;23.380;2023-05-07T12:54:08;3.83;;;3.53;;
6693;SDS011;3384;42.628;23.380;2023-05-07T12:56:35;4.80;;;4.07;;
6693;SDS011;3384;42.628;23.380;2023-05-07T12:59:06;7.70;;;3.57;;
6693;SDS011;3384;42.628;23.380;2023-05-07T13:01:33;3.63;;;3.30;;
6693;SDS011;3384;42.628;23.380;2023-05-07T13:04:00;3.40;;;3.10;;
6693;SDS011;3384;42.628;23.380;2023-05-07T13:06:35;3.30;;;3.10;;
6693;SDS011;3384;42.628;23.380;2023-05-07T13:09:03;6.60;;;3.43;;
6693;SDS011;3384;42.628;23.380;2023-05-07T13:11:31;4.30;;;4.00;;
6693;SDS011;3384;42.628;23.380;2023-05-07T13:13:57;4.37;;;4.17;;
6693;SDS011;3384;42.628;23.380;2023-05-07T13:16:25;5.60;;;3.90;;
6693;SDS011;3384;42.628;23.380;2023-05-07T13:18:52;5.00;;;4.70;;
6693;SDS011;3384;42.628;23.380;2023-05-07T13:21:18;4.10;;;4.00;;
6693;SDS011;3384;42.628;23.380;2023-05-07T13:23:45;5.53;;;5.10;;
6693;SDS011;3384;42.628;23.380;2023-05-07T13:26:12;3.60;;;3.30;;
6693;SDS011;3384;42.628;23.380;2023-05-07T13:28:39;4.20;;;3.80;;
6693;SDS011;3384;42.628;23.380;2023-05-07T13:31:05;5.37;;;3.83;;
6693;SDS011;3384;42.628;23.380;2023-05-07T13:33:39;4.87;;;3.27;;
6693;SDS011;3384;42.628;23.380;2023-05-07T13:36:05;3.23;;;3.00;;
6693;SDS011;3384;42.628;23.380;2023-05-07T13:38:34;13.73;;;3.17;;
6693;SDS011;3384;42.628;23.380;2023-05-07T13:41:01;2.60;;;2.50;;
6693;SDS011;3384;42.628;23.380;2023-05-07T13:43:29;3.17;;;3.07;;
6693;SDS011;3384;42.628;23.380;2023-05-07T13:46:07;5.70;;;5.30;;
6693;SDS011;3384;42.628;23.380;2023-05-07T13:48:39;4.10;;;2.70;;
6693;SDS011;3384;42.628;23.380;2023-05-07T13:51:06;3.03;;;2.90;;
6693;SDS011;3384;42.628;23.380;2023-05-07T13:53:33;2.50;;;2.30;;
6693;SDS011;3384;42.628;23.380;2023-05-07T13:56:01;2.33;;;2.23;;
6693;SDS011;3384;42.628;23.380;2023-05-07T13:58:29;2.80;;;2.60;;
6693;SDS011;3384;42.628;23.380;2023-05-07T14:01:00;3.07;;;2.77;;
6693;SDS011;3384;42.628;23.380;2023-05-07T14:03:29;2.17;;;2.07;;
6693;SDS011;3384;42.628;23.380;2023-05-07T14:05:59;2.37;;;2.27;;
6693;SDS011;3384;42.628;23.380;2023-05-07T14:08:29;4.80;;;3.20;;
6693;SDS011;3384;42.628;23.380;2023-05-07T14:10:56;3.30;;;3.10;;
6693;SDS011;3384;42.628;23.380;2023-05-07T14:13:25;2.80;;;2.70;;
6693;SDS011;3384;42.628;23.380;2023-05-07T14:15:53;3.00;;;2.80;;
6693;SDS011;3384;42.628;23.380;2023-05-07T14:18:20;4.57;;;3.30;;
6693;SDS011;3384;42.628;23.380;2023-05-07T14:20:47;2.97;;;2.87;;
6693;SDS011;3384;42.628;23.380;2023-05-07T14:23:17;3.00;;;2.90;;
6693;SDS011;3384;42.628;23.380;2023-05-07T14:25:53;2.87;;;2.77;;
6693;SDS011;3384;42.628;23.380;2023-05-07T14:28:19;3.70;;;3.50;;
6693;SDS011;3384;42.628;23.380;2023-05-07T14:30:46;5.20;;;2.40;;
6693;SDS011;3384;42.628;23.380;2023-05-07T14:33:13;4.70;;;2.67;;
6693;SDS011;3384;42.628;23.380;2023-05-07T14:35:39;2.83;;;2.73;;
6693;SDS011;3384;42.628;23.380;2023-05-07T14:38:06;2.70;;;2.60;;
6693;SDS011;3384;42.628;23.380;2023-05-07T14:40:34;4.80;;;2.70;;
6693;SDS011;3384;42.628;23.380;2023-05-07T14:43:01;2.77;;;2.63;;
6693;SDS011;3384;42.628;23.380;2023-05-07T14:45:27;3.20;;;3.00;;
6693;SDS011;3384;42.628;23.380;2023-05-07T14:47:54;3.40;;;3.30;;
6693;SDS011;3384;42.628;23.380;2023-05-07T14:50:23;12.23;;;11.20;;
6693;SDS011;3384;42.628;23.380;2023-05-07T14:52:53;6.63;;;4.53;;
6693;SDS011;3384;42.628;23.380;2023-05-07T14:55:20;3.47;;;3.30;;
6693;SDS011;3384;42.628;23.380;2023-05-07T14:57:55;3.30;;;3.20;;
6693;SDS011;3384;42.628;23.380;2023-05-07T15:00:24;3.93;;;3.40;;
6693;SDS011;3384;42.628;23.380;2023-05-07T15:02:51;3.73;;;3.43;;
6693;SDS011;3384;42.628;23.380;2023-05-07T15:05:20;3.70;;;3.47;;
6693;SDS011;3384;42.628;23.380;2023-05-07T15:07:47;4.50;;;2.70;;
6693;SDS011;3384;42.628;23.380;2023-05-07T15:10:17;2.50;;;2.40;;
6693;SDS011;3384;42.628;23.380;2023-05-07T15:12:47;6.20;;;4.37;;
6693;SDS011;3384;42.628;23.380;2023-05-07T15:15:16;3.00;;;2.80;;
6693;SDS011;3384;42.628;23.380;2023-05-07T15:17:43;5.73;;;3.10;;
6693;SDS011;3384;42.628;23.380;2023-05-07T15:20:14;2.60;;;2.40;;
6693;SDS011;3384;42.628;23.380;2023-05-07T15:22:41;2.00;;;1.90;;
6693;SDS011;3384;42.628;23.380;2023-05-07T15:25:09;2.80;;;2.70;;
6693;SDS011;3384;42.628;23.380;2023-05-07T15:27:35;2.37;;;2.27;;
6693;SDS011;3384;42.628;23.380;2023-05-07T15:30:02;3.43;;;3.23;;